createdAt,value
2016-05-19T00:00:13.007Z,58.58
2016-05-19T00:01:13.166Z,58.67
2016-05-19T00:02:13.168Z,58.95
2016-05-19T00:03:13.171Z,58.86
2016-05-19T00:04:13.003Z,58.86
2016-05-19T00:06:13.164Z,58.58
2016-05-19T00:07:14.775Z,58.67
2016-05-19T00:08:13.231Z,58.48
2016-05-19T00:09:13.156Z,58.95
2016-05-19T00:10:12.987Z,58.95
2016-05-19T00:11:13.147Z,58.76
2016-05-19T00:12:13.367Z,58.38
2016-05-19T00:13:13.152Z,58.67
2016-05-19T00:14:13.155Z,58.95
2016-05-19T00:15:13.158Z,58.95
2016-05-19T00:17:14.506Z,58.67
2016-05-19T00:18:13.228Z,58.95
2016-05-19T00:19:13.605Z,59.15
2016-05-19T00:20:13.342Z,59.15
2016-05-19T00:21:13.126Z,59.15
2016-05-19T00:22:13.347Z,58.67
2016-05-19T00:23:13.304Z,58.86
2016-05-19T00:24:13.118Z,58.86
2016-05-19T00:25:13.122Z,59.05
2016-05-19T00:26:13.124Z,58.67
2016-05-19T00:27:13.110Z,59.05
2016-05-19T00:28:13.113Z,59.15
2016-05-19T00:29:13.101Z,59.05
2016-05-19T00:30:13.104Z,59.44
2016-05-19T00:31:13.106Z,59.63
2016-05-19T00:32:13.109Z,59.72
2016-05-19T00:33:13.111Z,59.72
2016-05-19T00:34:13.098Z,59.63
2016-05-19T00:35:13.101Z,59.72
2016-05-19T00:36:13.104Z,59.53
2016-05-19T00:37:13.092Z,59.63
2016-05-19T00:38:13.094Z,59.63
2016-05-19T00:39:13.097Z,59.63
2016-05-19T00:40:13.084Z,59.72
2016-05-19T00:41:13.086Z,59.72
2016-05-19T00:42:13.089Z,59.63
2016-05-19T00:43:13.076Z,59.63
2016-05-19T00:44:13.078Z,59.72
2016-05-19T00:45:12.925Z,59.72
2016-05-19T00:46:13.069Z,59.72
2016-05-19T00:47:13.071Z,59.63
2016-05-19T00:48:13.074Z,59.72
2016-05-19T00:49:13.061Z,59.72
2016-05-19T00:50:13.063Z,59.63
2016-05-19T00:51:13.082Z,59.53
2016-05-19T00:52:13.069Z,59.53
2016-05-19T00:53:13.368Z,59.53
2016-05-19T00:54:13.058Z,59.72
2016-05-19T00:55:13.046Z,59.53
2016-05-19T00:56:13.049Z,59.91
2016-05-19T00:57:13.052Z,59.91
2016-05-19T00:58:13.054Z,59.81
2016-05-19T00:59:13.040Z,59.63
2016-05-19T01:00:13.044Z,59.81
2016-05-19T01:01:13.046Z,59.72
2016-05-19T01:02:12.876Z,59.81
2016-05-19T01:03:13.036Z,60.3
2016-05-19T01:04:13.039Z,60.01
2016-05-19T01:05:12.870Z,59.91
2016-05-19T01:06:13.029Z,59.91
2016-05-19T01:07:13.031Z,60.3
2016-05-19T01:08:13.300Z,60.39
2016-05-19T01:09:13.021Z,60.39
2016-05-19T01:10:13.023Z,60.2
2016-05-19T01:11:13.026Z,60.2
2016-05-19T01:12:13.606Z,60.2
2016-05-19T01:13:13.063Z,60.49
2016-05-19T01:14:13.456Z,61.25
2016-05-19T01:15:13.006Z,61.25
2016-05-19T01:16:12.852Z,61.16
2016-05-19T01:17:13.011Z,60.87
2016-05-19T01:18:13.014Z,60.74
2016-05-19T01:19:13.001Z,60.87
2016-05-19T01:20:12.988Z,60.96
2016-05-19T01:21:14.240Z,60.87
2016-05-19T01:22:13.494Z,60.84
2016-05-19T01:23:13.247Z,61.03
2016-05-19T01:24:27.423Z,60.87
2016-05-19T01:25:14.641Z,60.87
2016-05-19T01:26:13.285Z,60.55
2016-05-19T01:27:12.976Z,60.55
2016-05-19T01:28:12.979Z,60.93
2016-05-19T01:29:13.199Z,60.93
2016-05-19T01:30:13.155Z,60.84
2016-05-19T01:31:12.971Z,60.93
2016-05-19T01:32:12.973Z,60.93
2016-05-19T01:33:12.960Z,61.03
2016-05-19T01:34:13.448Z,60.93
2016-05-19T01:35:13.106Z,60.96
2016-05-19T01:36:14.578Z,61.03
2016-05-19T01:37:12.956Z,61.6
2016-05-19T01:38:12.973Z,61.6
2016-05-19T01:39:13.680Z,61.6
2016-05-19T01:40:12.963Z,61.6
2016-05-19T01:41:12.966Z,61.32
2016-05-19T01:42:12.953Z,61.32
2016-05-19T01:43:12.956Z,61.32
2016-05-19T01:44:12.959Z,61.41
2016-05-19T01:45:12.931Z,61.32
2016-05-19T01:46:12.948Z,61.32
2016-05-19T01:47:12.936Z,61.41
2016-05-19T01:48:12.938Z,61.41
2016-05-19T01:49:12.925Z,61.13
2016-05-19T01:50:12.928Z,61.51
2016-05-19T01:51:12.916Z,61.32
2016-05-19T01:52:12.918Z,61.6
2016-05-19T01:53:12.921Z,61.6
2016-05-19T01:54:12.924Z,61.13
2016-05-19T01:55:12.910Z,61.13
2016-05-19T01:56:12.913Z,61.32
2016-05-19T01:57:12.916Z,61.32
2016-05-19T01:58:12.902Z,61.51
2016-05-19T01:59:12.905Z,61.6
2016-05-19T02:00:12.893Z,61.6
2016-05-19T02:01:12.895Z,61.51
2016-05-19T02:02:12.898Z,61.51
2016-05-19T02:03:12.900Z,61.69
2016-05-19T02:04:12.887Z,61.6
2016-05-19T02:05:12.891Z,61.6
2016-05-19T02:06:12.893Z,61.41
2016-05-19T02:07:12.879Z,61.41
2016-05-19T02:08:13.054Z,61.6
2016-05-19T02:09:12.885Z,61.6
2016-05-19T02:10:12.873Z,61.6
2016-05-19T02:11:12.876Z,61.79
2016-05-19T02:12:12.878Z,61.6
2016-05-19T02:13:12.865Z,61.79
2016-05-19T02:14:12.884Z,61.6
2016-05-19T02:15:12.870Z,61.6
2016-05-19T02:16:12.873Z,61.79
2016-05-19T02:17:12.860Z,61.79
2016-05-19T02:18:12.863Z,61.69
2016-05-19T02:19:12.866Z,61.69
2016-05-19T02:20:12.852Z,61.6
2016-05-19T02:21:12.855Z,61.6
2016-05-19T02:22:12.842Z,61.69
2016-05-19T02:23:12.688Z,61.41
2016-05-19T02:24:12.910Z,61.51
2016-05-19T02:25:12.842Z,61.41
2016-05-19T02:26:12.845Z,61.6
2016-05-19T02:27:12.832Z,61.51
2016-05-19T02:28:12.835Z,61.51
2016-05-19T02:29:12.838Z,61.51
2016-05-19T02:30:12.669Z,61.6
2016-05-19T02:33:13.629Z,61.6
2016-05-19T02:34:12.835Z,61.69
2016-05-19T02:35:12.963Z,61.13
2016-05-19T02:36:12.810Z,61.22
2016-05-19T02:37:12.812Z,61.32
2016-05-19T02:38:12.799Z,61.32
2016-05-19T02:39:12.802Z,61.13
2016-05-19T02:40:13.992Z,61.22
2016-05-19T02:41:12.679Z,61.41
2016-05-19T02:42:13.319Z,61.51
2016-05-19T02:43:13.505Z,61.41
2016-05-19T02:44:13.131Z,61.13
2016-05-19T02:45:13.411Z,61.41
2016-05-19T02:46:13.016Z,61.41
2016-05-19T02:47:13.598Z,61.6
2016-05-19T02:48:13.849Z,61.51
2016-05-19T02:49:13.055Z,61.6
2016-05-19T02:50:13.073Z,61.51
2016-05-19T02:51:13.069Z,61.51
2016-05-19T02:52:13.078Z,61.51
2016-05-19T02:53:12.931Z,61.51
2016-05-19T02:54:13.813Z,61.22
2016-05-19T02:55:14.400Z,61.41
2016-05-19T02:56:14.015Z,61.41
2016-05-19T02:57:13.348Z,61.32
2016-05-19T02:58:13.805Z,61.22
2016-05-19T02:59:13.076Z,61.41
2016-05-19T03:00:13.081Z,61.41
2016-05-19T03:01:12.976Z,61.41
2016-05-19T03:02:13.072Z,61.41
2016-05-19T03:03:13.075Z,61.13
2016-05-19T03:04:13.079Z,60.74
2016-05-19T03:05:13.082Z,60.64
2016-05-19T03:06:13.086Z,60.93
2016-05-19T03:07:13.074Z,60.84
2016-05-19T03:08:13.076Z,60.93
2016-05-19T03:09:12.908Z,60.93
2016-05-19T03:10:13.066Z,60.93
2016-05-19T03:11:13.053Z,60.93
2016-05-19T03:12:13.056Z,60.84
2016-05-19T03:13:13.059Z,60.74
2016-05-19T03:14:13.062Z,60.93
2016-05-19T03:15:13.050Z,60.93
2016-05-19T03:16:13.052Z,60.74
2016-05-19T03:17:13.055Z,60.93
2016-05-19T03:18:13.042Z,60.93
2016-05-19T03:19:13.044Z,60.93
2016-05-19T03:20:13.047Z,60.93
2016-05-19T03:21:13.035Z,60.84
2016-05-19T03:22:13.037Z,60.93
2016-05-19T03:23:13.102Z,60.93
2016-05-19T03:24:13.026Z,60.74
2016-05-19T03:25:13.029Z,60.84
2016-05-19T03:26:13.016Z,60.84
2016-05-19T03:27:13.034Z,60.84
2016-05-19T03:28:13.006Z,60.74
2016-05-19T03:29:13.009Z,60.64
2016-05-19T03:30:13.012Z,60.84
2016-05-19T03:31:13.014Z,60.55
2016-05-19T03:32:13.001Z,60.55
2016-05-19T03:33:13.004Z,60.64
2016-05-19T03:34:12.851Z,60.74
2016-05-19T03:35:12.994Z,60.93
2016-05-19T03:36:12.996Z,60.93
2016-05-19T03:37:12.999Z,60.84
2016-05-19T03:38:12.986Z,61.03
2016-05-19T03:39:12.988Z,61.6
2016-05-19T03:40:12.992Z,61.22
2016-05-19T03:41:12.994Z,61.22
2016-05-19T03:42:12.981Z,61.13
2016-05-19T03:43:12.983Z,61.32
2016-05-19T03:44:12.971Z,61.32
2016-05-19T03:45:12.974Z,61.22
2016-05-19T03:46:12.976Z,61.6
2016-05-19T03:47:12.963Z,61.69
2016-05-19T03:48:12.966Z,61.69
2016-05-19T03:49:12.969Z,61.32
2016-05-19T03:50:12.972Z,61.51
2016-05-19T03:51:12.958Z,61.6
2016-05-19T03:52:13.446Z,61.6
2016-05-19T03:53:12.964Z,61.69
2016-05-19T03:54:12.952Z,61.41
2016-05-19T03:57:14.537Z,61.6
2016-05-19T03:58:13.555Z,61.69
2016-05-19T04:03:14.522Z,61.69
2016-05-19T04:04:13.603Z,61.79
2016-05-19T04:05:12.949Z,61.6
2016-05-19T04:06:12.936Z,61.6
2016-05-19T04:07:12.923Z,61.51
2016-05-19T04:08:13.036Z,61.51
2016-05-19T04:09:12.914Z,61.6
2016-05-19T04:10:12.917Z,61.41
2016-05-19T04:11:12.903Z,61.51
2016-05-19T04:12:14.406Z,61.22
2016-05-19T04:14:14.458Z,61.22
2016-05-19T04:15:13.475Z,61.22
2016-05-19T04:16:12.900Z,61.13
2016-05-19T04:17:12.903Z,61.13
2016-05-19T04:18:13.344Z,61.6
2016-05-19T04:19:12.908Z,61.41
2016-05-19T04:20:12.739Z,61.51
2016-05-19T04:21:12.882Z,61.41
2016-05-19T04:22:12.729Z,61.41
2016-05-19T04:23:12.888Z,61.54
2016-05-19T04:24:12.875Z,61.6
2016-05-19T04:25:12.878Z,60.96
2016-05-19T04:26:12.880Z,60.96
2016-05-19T04:27:12.868Z,61.06
2016-05-19T04:28:12.871Z,61.06
2016-05-19T04:29:12.858Z,61.06
2016-05-19T04:30:12.860Z,60.96
2016-05-19T04:31:13.066Z,60.96
2016-05-19T04:44:12.836Z,61.16
2016-05-19T04:45:12.838Z,60.52
2016-05-19T04:46:12.841Z,60.3
2016-05-19T04:47:12.843Z,60.33
2016-05-19T04:48:12.831Z,60.23
2016-05-19T04:55:12.663Z,59.37
2016-05-19T04:56:12.821Z,59.94
2016-05-19T04:57:12.807Z,59.66
2016-05-19T04:58:12.811Z,59.75
2016-05-19T04:59:12.641Z,58.89
2016-05-19T05:00:12.801Z,59.18
2016-05-19T05:01:12.819Z,58.98
2016-05-19T05:02:12.806Z,58.8
2016-05-19T05:03:12.793Z,59.11
2016-05-19T05:04:12.795Z,58.92
2016-05-19T05:05:12.798Z,58.83
2016-05-19T05:06:12.785Z,59.01
2016-05-19T05:07:12.632Z,58.54
2016-05-19T05:09:13.090Z,58.92
2016-05-19T05:10:12.781Z,58.63
2016-05-19T05:11:13.533Z,58.44
2016-05-19T05:12:13.739Z,58.54
2016-05-19T05:38:12.606Z,55.34
2016-05-19T05:39:12.749Z,55.15
2016-05-19T05:40:12.752Z,55.15
2016-05-19T05:41:12.754Z,55.34
2016-05-19T05:42:12.742Z,55.34
2016-05-19T05:43:12.745Z,54.79
2016-05-19T05:44:12.748Z,54.7
2016-05-19T05:45:12.750Z,54.41
2016-05-19T05:46:12.753Z,54.22
2016-05-19T05:47:12.739Z,54.32
2016-05-19T05:48:12.758Z,53.74
2016-05-19T05:49:12.744Z,53.55
2016-05-19T05:50:12.748Z,53.74
2016-05-19T05:51:12.750Z,54.03
2016-05-19T05:52:12.581Z,53.93
2016-05-19T05:53:12.740Z,53.36
2016-05-19T05:54:12.742Z,53.09
2016-05-19T05:55:12.745Z,53.19
2016-05-19T05:56:12.748Z,53.09
2016-05-19T05:57:12.735Z,52.62
2016-05-19T05:58:12.738Z,52.52
2016-05-19T05:59:12.740Z,52.91
2016-05-19T06:00:12.743Z,52.81
2016-05-19T06:01:12.746Z,53
2016-05-19T06:02:12.749Z,52.33
2016-05-19T06:03:12.736Z,52.23
2016-05-19T06:04:12.738Z,52.04
2016-05-19T06:05:12.741Z,52.04
2016-05-19T06:06:12.744Z,52.16
2016-05-19T06:07:12.574Z,51.97
2016-05-19T06:08:12.749Z,52.16
2016-05-19T06:09:12.736Z,51.97
2016-05-19T06:10:12.739Z,51.87
2016-05-19T06:11:12.742Z,51.97
2016-05-19T06:12:12.728Z,51.49
2016-05-19T06:13:12.747Z,51.59
2016-05-19T06:14:12.734Z,51.2
2016-05-19T06:15:12.581Z,51.2
2016-05-19T06:16:12.599Z,50.82
2016-05-19T06:17:12.726Z,50.92
2016-05-19T06:18:12.729Z,50.73
2016-05-19T06:19:12.731Z,50.34
2016-05-19T06:20:12.734Z,50.17
2016-05-19T06:21:12.736Z,50.08
2016-05-19T06:22:12.740Z,50.27
2016-05-19T06:23:12.586Z,49.79
2016-05-19T06:24:12.730Z,49.6
2016-05-19T06:25:12.592Z,49.5
2016-05-19T06:26:12.736Z,49.24
2016-05-19T06:28:12.787Z,49.15
2016-05-19T06:29:13.540Z,49.15
2016-05-19T06:30:13.386Z,48.38
2016-05-19T06:31:26.920Z,48.38
2016-05-19T06:32:12.595Z,47.92
2016-05-19T06:33:12.754Z,47.63
2016-05-19T06:34:12.741Z,47.82
2016-05-19T06:35:12.744Z,47.82
2016-05-19T06:36:12.746Z,47.25
2016-05-19T06:37:12.749Z,47.56
2016-05-19T06:38:12.751Z,47.08
2016-05-19T06:39:13.004Z,46.69
2016-05-19T06:40:13.523Z,46.69
2016-05-19T06:41:14.088Z,46.69
2016-05-19T06:42:14.325Z,46.59
2016-05-19T06:43:13.718Z,46.79
2016-05-19T06:44:12.940Z,46.02
2016-05-19T06:45:13.177Z,46.31
2016-05-19T06:46:13.070Z,45.54
2016-05-19T06:47:12.901Z,45.64
2016-05-19T06:48:12.763Z,45.25
2016-05-19T06:49:12.765Z,45.28
2016-05-19T06:50:12.767Z,44.89
2016-05-19T06:51:13.974Z,44.7
2016-05-19T06:52:12.773Z,44.7
2016-05-19T06:53:12.776Z,44.51
2016-05-19T06:54:12.623Z,44.12
2016-05-19T06:55:12.781Z,44.31
2016-05-19T06:56:12.628Z,43.95
2016-05-19T06:57:12.803Z,43.66
2016-05-19T06:58:12.790Z,43.66
2016-05-19T06:59:12.791Z,43.28
2016-05-19T07:00:12.795Z,42.89
2016-05-19T07:01:12.797Z,42.63
2016-05-19T07:02:12.800Z,42.63
2016-05-19T07:03:12.646Z,41.97
2016-05-19T07:04:12.805Z,41.78
2016-05-19T07:05:12.808Z,41.61
2016-05-19T07:06:12.811Z,41.51
2016-05-19T07:07:12.657Z,41.03
2016-05-19T07:08:12.691Z,40.84
2016-05-19T07:09:12.819Z,41.14
2016-05-19T07:10:12.821Z,40.66
2016-05-19T07:11:12.684Z,40.49
2016-05-19T07:12:12.843Z,39.91
2016-05-19T07:13:12.689Z,39.64
2016-05-19T07:14:12.848Z,39.45
2016-05-19T07:15:12.851Z,38.97
2016-05-19T07:16:12.869Z,38.6
2016-05-19T07:17:12.872Z,38.21
2016-05-19T07:18:12.875Z,37.93
2016-05-19T07:19:12.878Z,37.83
2016-05-19T07:20:12.880Z,37.56
2016-05-19T07:21:12.883Z,37.27
2016-05-19T07:22:12.901Z,36.88
2016-05-19T07:23:12.763Z,37.29
2016-05-19T07:24:12.906Z,36.32
2016-05-19T07:25:12.909Z,36.13
2016-05-19T07:26:12.912Z,35.37
2016-05-19T07:27:12.758Z,34.7
2016-05-19T07:28:12.933Z,34.5
2016-05-19T07:29:12.936Z,34.81
2016-05-19T07:30:12.955Z,34.33
2016-05-19T07:31:12.957Z,33.47
2016-05-19T07:32:12.960Z,33.29
2016-05-19T07:33:12.977Z,33.1
2016-05-19T07:34:12.980Z,32.64
2016-05-19T07:35:12.827Z,32.06
2016-05-19T07:36:13.002Z,31.49
2016-05-19T07:37:13.004Z,30.91
2016-05-19T07:38:13.429Z,29.95
2016-05-19T07:39:13.009Z,29.27
2016-05-19T07:40:13.027Z,29.08
2016-05-19T07:41:13.030Z,28.19
2016-05-19T07:42:13.048Z,27.61
2016-05-19T07:43:13.051Z,27.32
2016-05-19T07:44:13.070Z,27.13
2016-05-19T07:45:13.072Z,26.93
2016-05-19T07:46:13.935Z,26.74
2016-05-19T07:47:27.281Z,26.16
2016-05-19T07:48:13.205Z,26.27
2016-05-19T07:49:13.318Z,25.88
2016-05-19T07:50:13.134Z,25.7
2016-05-19T07:51:13.136Z,24.93
2016-05-19T07:52:12.998Z,24.84
2016-05-19T07:53:13.172Z,24.85
2016-05-19T07:54:13.175Z,24.56
2016-05-19T07:55:14.286Z,24.18
2016-05-19T07:56:14.055Z,24.58
2016-05-19T07:57:13.308Z,23.8
2016-05-19T07:58:13.608Z,24.11
2016-05-19T08:00:13.238Z,23.52
2016-05-19T08:01:13.256Z,23.52
2016-05-19T08:02:13.274Z,23.25
2016-05-19T08:03:13.277Z,23.05
2016-05-19T08:04:13.295Z,22.38
2016-05-19T08:05:13.313Z,22.2
2016-05-19T08:06:13.582Z,21.8
2016-05-19T08:07:13.335Z,21.71
2016-05-19T08:08:13.353Z,21.12
2016-05-19T08:09:15.325Z,21.23
2016-05-19T08:10:13.624Z,20.84
2016-05-19T08:11:13.955Z,20.65
2016-05-19T08:12:13.410Z,20.84
2016-05-19T08:13:13.241Z,20.07
2016-05-19T08:14:13.416Z,19.68
2016-05-19T08:15:13.434Z,19.88
2016-05-19T08:16:13.578Z,19.01
2016-05-19T08:17:13.456Z,19.01
2016-05-19T08:18:13.474Z,18.92
2016-05-19T08:19:13.492Z,18.73
2016-05-19T08:20:13.510Z,18.34
2016-05-19T08:21:13.512Z,17.66
2016-05-19T08:22:13.375Z,18.05
2016-05-19T08:23:14.050Z,17.86
2016-05-19T08:24:13.552Z,17.47
2016-05-19T08:25:13.570Z,17.19
2016-05-19T08:26:13.588Z,16.8
2016-05-19T08:27:13.607Z,16.78
2016-05-19T08:28:13.610Z,16.68
2016-05-19T08:29:13.628Z,16.29
2016-05-19T08:30:13.647Z,16.29
2016-05-19T08:31:13.664Z,16.29
2016-05-19T08:32:13.667Z,15.81
2016-05-19T08:33:13.686Z,15.81
2016-05-19T08:34:13.704Z,15.72
2016-05-19T08:35:13.708Z,15.33
2016-05-19T08:36:13.725Z,15.14
2016-05-19T08:37:13.760Z,15.23
2016-05-19T08:38:13.762Z,15.04
2016-05-19T08:39:14.171Z,15.04
2016-05-19T08:40:13.782Z,15.43
2016-05-19T08:41:13.801Z,15.91
2016-05-19T08:42:13.819Z,15.61
2016-05-19T08:43:13.838Z,15.32
2016-05-19T08:44:13.841Z,15.22
2016-05-19T08:45:13.859Z,15.42
2016-05-19T08:46:13.877Z,14.64
2016-05-19T08:47:13.895Z,15.03
2016-05-19T08:48:13.914Z,14.83
2016-05-19T08:49:13.916Z,14.23
2016-05-19T08:50:13.934Z,14.43
2016-05-19T08:51:13.797Z,14.23
2016-05-19T08:52:13.956Z,14.52
2016-05-19T08:53:13.833Z,14.42
2016-05-19T08:54:14.633Z,14.12
2016-05-19T08:55:13.979Z,14.41
2016-05-19T08:56:14.014Z,14.02
2016-05-19T08:57:14.031Z,14.01
2016-05-19T08:58:14.050Z,14.01
2016-05-19T08:59:14.052Z,13.81
2016-05-19T09:00:14.071Z,14.09
2016-05-19T09:01:14.089Z,14.87
2016-05-19T09:02:14.092Z,14.87
2016-05-19T09:03:14.111Z,15.05
2016-05-19T09:04:14.128Z,14.75
2016-05-19T09:05:14.225Z,15.14
2016-05-19T09:06:14.134Z,15.23
2016-05-19T09:08:14.154Z,15.61
2016-05-19T09:09:14.188Z,16.29
2016-05-19T09:10:14.176Z,16.28
2016-05-19T09:11:14.210Z,16.57
2016-05-19T09:12:14.196Z,16.86
2016-05-19T09:13:14.216Z,17.05
2016-05-19T09:14:14.515Z,17.24
2016-05-19T09:15:14.079Z,17.33
2016-05-19T09:16:14.490Z,17.33
2016-05-19T09:17:14.929Z,17.82
2016-05-19T09:18:15.120Z,17.71
2016-05-19T09:19:14.590Z,18
2016-05-19T09:20:14.282Z,18.19
2016-05-19T09:21:14.378Z,18.19
2016-05-19T09:22:14.286Z,18.27
2016-05-19T09:23:14.304Z,17.4
2016-05-19T09:24:14.464Z,17.4
2016-05-19T09:25:14.357Z,17.77
2016-05-19T09:26:14.312Z,18.74
2016-05-19T09:27:16.050Z,18.74
2016-05-19T09:28:14.333Z,18.64
2016-05-19T09:29:14.336Z,18.74
2016-05-19T09:30:14.339Z,18.93
2016-05-19T09:31:14.795Z,18.35
2016-05-19T09:32:14.736Z,18.45
2016-05-19T09:33:14.378Z,17.48
2016-05-19T09:34:14.366Z,17.19
2016-05-19T09:35:14.368Z,17.39
2016-05-19T09:36:14.386Z,17.19
2016-05-19T09:37:14.388Z,17.77
2016-05-19T09:38:14.392Z,17.68
2016-05-19T09:39:14.880Z,17.68
2016-05-19T09:40:14.413Z,17.3
2016-05-19T09:41:14.416Z,17.58
2016-05-19T09:42:14.418Z,17.01
2016-05-19T09:43:14.421Z,16.62
2016-05-19T09:44:14.424Z,15.66
2016-05-19T09:45:14.442Z,15.66
2016-05-19T09:46:14.445Z,15.75
2016-05-19T09:47:14.448Z,15.27
2016-05-19T09:48:14.451Z,15.56
2016-05-19T09:49:14.468Z,15.56
2016-05-19T09:50:14.315Z,15.47
2016-05-19T09:51:14.474Z,15.47
2016-05-19T09:52:14.476Z,14.98
2016-05-19T09:53:14.479Z,14.98
2016-05-19T09:54:14.967Z,15.08
2016-05-19T09:55:14.344Z,14.9
2016-05-19T09:56:14.503Z,14.22
2016-05-19T09:57:14.506Z,14.7
2016-05-19T09:58:14.523Z,14.03
2016-05-19T09:59:14.526Z,14.03
2016-05-19T10:00:14.529Z,14.02
2016-05-19T10:01:14.375Z,14.22
2016-05-19T10:02:14.550Z,14.89
2016-05-19T10:03:14.397Z,14.7
2016-05-19T10:04:14.556Z,14.7
2016-05-19T10:05:14.558Z,14.79
2016-05-19T10:06:14.561Z,14.6
2016-05-19T10:07:14.564Z,14.7
2016-05-19T10:08:14.426Z,14.89
2016-05-19T10:09:14.882Z,14.9
2016-05-19T10:10:14.588Z,15.08
2016-05-19T10:11:14.605Z,15.08
2016-05-19T10:12:14.640Z,14.89
2016-05-19T10:13:14.611Z,15.08
2016-05-19T10:14:14.614Z,14.31
2016-05-19T10:15:14.616Z,14.22
2016-05-19T10:16:14.635Z,14.89
2016-05-19T10:17:14.638Z,14.6
2016-05-19T10:18:14.640Z,14.4
2016-05-19T10:19:14.643Z,15.09
2016-05-19T10:20:14.505Z,14.99
2016-05-19T10:21:14.665Z,14.41
2016-05-19T10:22:14.667Z,14.9
2016-05-19T10:23:14.670Z,14.71
2016-05-19T10:24:14.765Z,14.23
2016-05-19T10:25:15.471Z,14.32
2016-05-19T10:27:14.727Z,14.71
2016-05-19T10:28:28.886Z,14.9
2016-05-19T10:29:14.717Z,15.01
2016-05-19T10:30:14.735Z,14.43
2016-05-19T10:31:14.737Z,14.43
2016-05-19T10:32:14.740Z,14.43
2016-05-19T10:33:15.947Z,14.91
2016-05-19T10:34:14.856Z,14.43
2016-05-19T10:35:15.311Z,14.14
2016-05-19T10:36:14.814Z,14.53
2016-05-19T10:37:14.769Z,14.33
2016-05-19T10:38:15.866Z,14.53
2016-05-19T10:39:15.947Z,14.23
2016-05-19T10:40:15.653Z,13.94
2016-05-19T10:41:14.796Z,13.85
2016-05-19T10:42:15.033Z,13.75
2016-05-19T10:43:14.817Z,14.33
2016-05-19T10:44:14.819Z,13.46
2016-05-19T10:45:14.666Z,13.75
2016-05-19T10:46:16.091Z,13.55
2016-05-19T10:47:15.781Z,13.55
2016-05-19T10:48:14.862Z,14.23
2016-05-19T10:49:15.568Z,14.03
2016-05-19T10:50:15.679Z,13.93
2016-05-19T10:51:14.870Z,13.65
2016-05-19T10:52:14.873Z,13.93
2016-05-19T10:53:14.969Z,14.13
2016-05-19T10:54:14.893Z,13.84
2016-05-19T10:55:14.896Z,13.93
2016-05-19T10:56:14.899Z,13.84
2016-05-19T10:57:14.901Z,13.45
2016-05-19T10:58:14.763Z,13.55
2016-05-19T10:59:14.923Z,13.75
2016-05-19T11:00:14.926Z,13.93
2016-05-19T11:01:14.943Z,14.12
2016-05-19T11:02:14.946Z,14.03
2016-05-19T11:03:14.948Z,13.93
2016-05-19T11:04:14.967Z,14.51
2016-05-19T11:05:14.969Z,14.51
2016-05-19T11:06:14.972Z,14.51
2016-05-19T11:07:14.975Z,14.61
2016-05-19T11:08:14.978Z,14.32
2016-05-19T11:09:14.840Z,13.85
2016-05-19T11:10:14.999Z,13.65
2016-05-19T11:11:15.001Z,13.85
2016-05-19T11:12:15.019Z,13.75
2016-05-19T11:13:15.023Z,13.75
2016-05-19T11:14:15.025Z,13.56
2016-05-19T11:15:15.028Z,13.56
2016-05-19T11:16:15.046Z,13.36
2016-05-19T11:17:14.893Z,13.27
2016-05-19T11:18:15.051Z,13.08
2016-05-19T11:19:15.054Z,13.08
2016-05-19T11:20:15.073Z,12.98
2016-05-19T11:21:15.076Z,12.79
2016-05-19T11:22:14.921Z,12.99
2016-05-19T11:23:15.096Z,12.7
2016-05-19T11:24:15.099Z,12.5
2016-05-19T11:25:15.102Z,12.79
2016-05-19T11:26:15.120Z,12.51
2016-05-19T11:27:15.123Z,12.22
2016-05-19T11:28:15.126Z,12.12
2016-05-19T11:29:15.129Z,12.02
2016-05-19T11:30:15.162Z,12.02
2016-05-19T11:31:15.165Z,12.12
2016-05-19T11:32:15.151Z,12.22
2016-05-19T11:33:15.170Z,12.51
2016-05-19T11:34:15.172Z,12.89
2016-05-19T11:35:15.191Z,13.09
2016-05-19T11:36:15.037Z,13.09
2016-05-19T11:37:15.197Z,12.79
2016-05-19T11:38:15.058Z,13.28
2016-05-19T11:39:15.217Z,12.99
2016-05-19T11:40:15.235Z,13.67
2016-05-19T11:41:15.238Z,13.37
2016-05-19T11:42:15.242Z,13.27
2016-05-19T11:43:16.244Z,12.79
2016-05-19T11:44:15.090Z,12.99
2016-05-19T11:45:15.358Z,12.79
2016-05-19T11:46:15.314Z,12.7
2016-05-19T11:47:15.309Z,12.41
2016-05-19T11:48:15.366Z,12.31
2016-05-19T11:49:15.409Z,12.02
2016-05-19T11:50:15.453Z,12.12
2016-05-19T11:51:15.901Z,12.51
2016-05-19T11:52:16.140Z,12.12
2016-05-19T11:53:15.548Z,12.51
2016-05-19T11:54:16.237Z,11.73
2016-05-19T11:55:15.597Z,11.74
2016-05-19T11:56:16.411Z,12.13
2016-05-19T11:57:16.623Z,12.23
2016-05-19T11:58:16.178Z,12.22
2016-05-19T11:59:15.671Z,12.32
2016-05-19T12:00:15.539Z,12.41
2016-05-19T12:01:15.703Z,12.89
2016-05-19T12:02:15.708Z,13.09
2016-05-19T12:03:15.822Z,12.9
2016-05-19T12:04:15.732Z,13.18
2016-05-19T12:05:15.721Z,12.99
2016-05-19T12:06:17.039Z,13.09
2016-05-19T12:07:15.745Z,12.9
2016-05-19T12:08:15.749Z,12.9
2016-05-19T12:09:16.143Z,12.99
2016-05-19T12:10:15.771Z,12.32
2016-05-19T12:11:15.790Z,13.19
2016-05-19T12:12:15.809Z,13.19
2016-05-19T12:13:15.796Z,13.38
2016-05-19T12:14:15.815Z,12.99
2016-05-19T12:15:15.880Z,13.29
2016-05-19T12:16:15.822Z,13.39
2016-05-19T12:17:15.668Z,12.9
2016-05-19T12:18:15.842Z,13
2016-05-19T12:19:15.845Z,13.2
2016-05-19T12:20:15.879Z,13.1
2016-05-19T12:21:15.849Z,12.9
2016-05-19T12:22:15.868Z,12.7
2016-05-19T12:23:15.871Z,12.7
2016-05-19T12:24:15.890Z,12.89
2016-05-19T12:25:15.876Z,13.47
2016-05-19T12:26:15.895Z,13.66
2016-05-19T12:27:15.898Z,13.86
2016-05-19T12:28:15.916Z,13.46
2016-05-19T12:29:15.918Z,14.06
2016-05-19T12:30:15.937Z,14.15
2016-05-19T12:31:15.940Z,13.96
2016-05-19T12:32:15.943Z,14.14
2016-05-19T12:33:15.961Z,14.06
2016-05-19T12:34:15.964Z,13.57
2016-05-19T12:35:15.966Z,13.76
2016-05-19T12:36:15.969Z,13.57
2016-05-19T12:37:15.987Z,13.86
2016-05-19T12:38:15.990Z,13.86
2016-05-19T12:39:15.992Z,14.06
2016-05-19T12:40:16.011Z,14.14
2016-05-19T12:41:16.014Z,14.24
2016-05-19T12:42:15.861Z,14.04
2016-05-19T12:43:16.034Z,13.66
2016-05-19T12:44:16.037Z,14.04
2016-05-19T12:45:16.039Z,14.34
2016-05-19T12:46:16.042Z,14.24
2016-05-19T12:47:16.045Z,14.14
2016-05-19T12:48:16.063Z,14.23
2016-05-19T12:49:16.066Z,14.53
2016-05-19T12:50:16.085Z,14.23
2016-05-19T12:51:16.072Z,13.36
2016-05-19T12:52:15.949Z,13.17
2016-05-19T12:53:16.093Z,13.46
2016-05-19T12:54:16.283Z,14.14
2016-05-19T12:55:16.113Z,13.94
2016-05-19T12:56:16.116Z,14.03
2016-05-19T12:57:16.119Z,14.03
2016-05-19T12:58:15.965Z,14.42
2016-05-19T12:59:16.141Z,13.93
2016-05-19T13:00:16.143Z,13.94
2016-05-19T13:01:30.333Z,14.33
2016-05-19T13:02:16.148Z,14.33
2016-05-19T13:03:16.167Z,14.14
2016-05-19T13:04:16.278Z,14.23
2016-05-19T13:05:16.187Z,14.23
2016-05-19T13:06:16.190Z,14.14
2016-05-19T13:07:16.037Z,14.51
2016-05-19T13:08:16.196Z,14.81
2016-05-19T13:09:16.558Z,14.53
2016-05-19T13:10:17.107Z,14.53
2016-05-19T13:11:16.250Z,14.23
2016-05-19T13:12:16.878Z,14.43
2016-05-19T13:13:16.928Z,14.33
2016-05-19T13:14:16.478Z,13.85
2016-05-19T13:15:17.105Z,13.85
2016-05-19T13:16:16.279Z,13.94
2016-05-19T13:17:17.438Z,14.04
2016-05-19T13:18:16.270Z,13.95
2016-05-19T13:19:16.272Z,13.95
2016-05-19T13:20:16.275Z,14.25
2016-05-19T13:21:16.277Z,13.37
2016-05-19T13:22:16.296Z,13.47
2016-05-19T13:23:17.142Z,13.47
2016-05-19T13:24:16.301Z,13.48
2016-05-19T13:25:16.788Z,13.09
2016-05-19T13:26:16.822Z,13.19
2016-05-19T13:27:16.310Z,12.7
2016-05-19T13:28:17.110Z,12.8
2016-05-19T13:29:16.345Z,12.9
2016-05-19T13:30:16.348Z,13.1
2016-05-19T13:31:16.195Z,13
2016-05-19T13:32:16.370Z,12.81
2016-05-19T13:33:16.372Z,12.81
2016-05-19T13:34:16.218Z,12.71
2016-05-19T13:35:16.393Z,12.52
2016-05-19T13:36:16.396Z,12.52
2016-05-19T13:37:16.398Z,12.04
2016-05-19T13:38:16.417Z,12.52
2016-05-19T13:39:16.920Z,12.33
2016-05-19T13:40:16.422Z,12.13
2016-05-19T13:41:16.284Z,12.33
2016-05-19T13:42:16.443Z,11.94
2016-05-19T13:43:16.446Z,12.04
2016-05-19T13:44:16.464Z,12.04
2016-05-19T13:45:16.467Z,12.04
2016-05-19T13:46:16.470Z,12.13
2016-05-19T13:47:16.472Z,11.85
2016-05-19T13:48:16.491Z,11.65
2016-05-19T13:49:16.509Z,11.46
2016-05-19T13:50:16.511Z,11.94
2016-05-19T13:51:16.514Z,11.36
2016-05-19T13:52:16.361Z,11.45
2016-05-19T13:53:16.535Z,11.36
2016-05-19T13:54:16.554Z,11.45